createdAt,value
2023-03-08T00:02:19.151Z,3.65
2023-03-08T00:04:46.630Z,3.62
2023-03-08T00:07:14.099Z,3.52
2023-03-08T00:09:41.549Z,3.56
2023-03-08T00:12:10.570Z,3.61
2023-03-08T00:14:38.342Z,3.51
2023-03-08T00:17:05.780Z,3.53
2023-03-08T00:19:33.379Z,3.71
2023-03-08T00:22:00.775Z,3.69
2023-03-08T00:24:28.209Z,3.60
2023-03-08T00:26:55.596Z,3.64
2023-03-08T00:29:23.197Z,3.50
2023-03-08T00:31:51.173Z,3.60
2023-03-08T00:34:18.779Z,3.65
2023-03-08T00:36:46.264Z,3.56
2023-03-08T00:39:14.606Z,3.49
2023-03-08T00:41:42.074Z,3.60
2023-03-08T00:44:09.835Z,3.53
2023-03-08T00:46:37.244Z,3.51
2023-03-08T00:49:04.942Z,3.56
2023-03-08T00:51:32.396Z,3.43
2023-03-08T00:53:59.830Z,3.48
2023-03-08T00:56:27.672Z,3.49
2023-03-08T00:58:55.113Z,3.61
2023-03-08T01:01:22.633Z,3.56
2023-03-08T01:03:50.226Z,3.27
2023-03-08T01:06:17.636Z,3.27
2023-03-08T01:08:45.685Z,3.33
2023-03-08T01:11:17.695Z,3.08
2023-03-08T01:13:45.169Z,3.24
2023-03-08T01:16:16.984Z,3.21
2023-03-08T01:18:44.467Z,2.93
2023-03-08T01:21:12.373Z,2.83
2023-03-08T01:23:41.623Z,3.02
2023-03-08T01:26:12.975Z,3.06
2023-03-08T01:28:40.663Z,3.02
2023-03-08T01:31:15.742Z,2.89
2023-03-08T01:33:43.807Z,2.82
2023-03-08T01:36:12.303Z,2.84
2023-03-08T01:38:40.256Z,2.79
2023-03-08T01:41:08.389Z,3.02
2023-03-08T01:43:37.156Z,3.08
2023-03-08T01:46:11.664Z,3.03
2023-03-08T01:48:41.809Z,3.09
2023-03-08T01:51:10.329Z,3.19
2023-03-08T01:53:38.522Z,3.29
2023-03-08T01:56:08.503Z,3.10
2023-03-08T01:58:36.161Z,3.02
2023-03-08T02:01:03.647Z,3.01
2023-03-08T02:03:31.232Z,3.02
2023-03-08T02:05:58.959Z,3.06
2023-03-08T02:08:26.523Z,3.19
2023-03-08T02:10:54.110Z,3.23
2023-03-08T02:13:21.812Z,3.21
2023-03-08T02:15:50.292Z,3.19
2023-03-08T02:18:17.724Z,3.25
2023-03-08T02:20:45.213Z,3.14
2023-03-08T02:23:12.582Z,3.19
2023-03-08T02:25:40.236Z,3.12
2023-03-08T02:28:08.056Z,3.02
2023-03-08T02:30:37.091Z,2.95
2023-03-08T02:33:05.089Z,3.03
2023-03-08T02:35:32.663Z,3.16
2023-03-08T02:38:00.406Z,3.07
2023-03-08T02:40:27.926Z,3.19
2023-03-08T02:42:56.078Z,3.32
2023-03-08T02:45:24.418Z,3.20
2023-03-08T02:47:52.074Z,3.32
2023-03-08T02:50:19.463Z,3.44
2023-03-08T02:52:46.892Z,3.53
2023-03-08T02:55:14.372Z,3.42
2023-03-08T02:57:41.828Z,3.52
2023-03-08T03:00:09.610Z,3.27
2023-03-08T03:02:37.507Z,3.40
2023-03-08T03:05:10.797Z,3.37
2023-03-08T03:07:38.782Z,3.51
2023-03-08T03:10:06.543Z,3.56
2023-03-08T03:12:33.992Z,3.70
2023-03-08T03:15:05.967Z,3.62
2023-03-08T03:17:33.635Z,3.65
2023-03-08T03:20:01.125Z,3.56
2023-03-08T03:22:28.836Z,3.67
2023-03-08T03:24:56.240Z,3.88
2023-03-08T03:27:23.740Z,3.88
2023-03-08T03:29:51.234Z,4.11
2023-03-08T03:32:18.744Z,4.21
2023-03-08T03:34:46.186Z,3.81
2023-03-08T03:37:13.639Z,3.71
2023-03-08T03:39:41.190Z,3.54
2023-03-08T03:42:08.988Z,3.65
2023-03-08T03:44:36.520Z,3.52
2023-03-08T03:47:03.931Z,3.56
2023-03-08T03:49:31.380Z,3.34
2023-03-08T03:51:58.843Z,3.33
2023-03-08T03:54:26.308Z,3.16
2023-03-08T03:56:55.486Z,2.94
2023-03-08T03:59:24.379Z,3.66
2023-03-08T04:01:53.057Z,2.89
2023-03-08T04:04:20.645Z,2.88
2023-03-08T04:06:48.105Z,3.36
2023-03-08T04:09:17.646Z,3.29
2023-03-08T04:11:45.069Z,3.02
2023-03-08T04:14:12.549Z,2.99
2023-03-08T04:16:41.067Z,2.97
2023-03-08T04:19:10.987Z,3.13
2023-03-08T04:21:38.593Z,3.23
2023-03-08T04:24:06.302Z,2.84
2023-03-08T04:26:33.721Z,2.50
2023-03-08T04:29:05.564Z,2.70
2023-03-08T04:31:34.830Z,2.62
2023-03-08T04:34:03.176Z,2.95
2023-03-08T04:36:30.695Z,2.78
2023-03-08T04:38:58.183Z,3.33
2023-03-08T04:41:25.626Z,2.75
2023-03-08T04:43:54.127Z,2.54
2023-03-08T04:46:22.687Z,2.69
2023-03-08T04:48:52.818Z,3.29
2023-03-08T04:51:20.772Z,3.14
2023-03-08T04:53:48.364Z,3.35
2023-03-08T04:56:16.739Z,3.06
2023-03-08T04:58:44.324Z,3.01
2023-03-08T05:01:13.063Z,3.18
2023-03-08T05:03:40.733Z,2.82
2023-03-08T05:06:08.829Z,2.59
2023-03-08T05:08:36.396Z,2.43
2023-03-08T05:11:04.670Z,2.96
2023-03-08T05:13:33.507Z,2.51
2023-03-08T05:16:01.147Z,2.83
2023-03-08T05:18:28.548Z,2.61
2023-03-08T05:20:59.816Z,2.53
2023-03-08T05:23:28.670Z,2.49
2023-03-08T05:25:57.290Z,2.21
2023-03-08T05:28:25.627Z,2.36
2023-03-08T05:31:13.405Z,2.13
2023-03-08T05:33:41.467Z,2.04
2023-03-08T05:36:09.180Z,2.50
2023-03-08T05:38:36.647Z,2.47
2023-03-08T05:41:05.602Z,2.47
2023-03-08T05:43:33.140Z,2.43
2023-03-08T05:46:02.394Z,2.93
2023-03-08T05:48:30.182Z,2.61
2023-03-08T05:50:57.665Z,2.60
2023-03-08T05:53:25.431Z,2.62
2023-03-08T05:55:52.829Z,2.26
2023-03-08T05:58:20.256Z,2.49
2023-03-08T06:00:47.622Z,2.34
2023-03-08T06:03:15.188Z,2.39
2023-03-08T06:05:42.705Z,2.01
2023-03-08T06:08:10.170Z,2.33
2023-03-08T06:10:37.631Z,2.17
2023-03-08T06:13:05.256Z,2.37
2023-03-08T06:15:32.640Z,2.42
2023-03-08T06:18:00.094Z,2.24
2023-03-08T06:20:27.581Z,2.35
2023-03-08T06:22:54.957Z,2.44
2023-03-08T06:25:22.355Z,2.42
2023-03-08T06:27:49.751Z,2.57
2023-03-08T06:30:17.377Z,2.93
2023-03-08T06:32:44.867Z,2.98
2023-03-08T06:35:12.297Z,2.94
2023-03-08T06:37:39.801Z,3.05
2023-03-08T06:40:09.217Z,3.05
2023-03-08T06:42:41.494Z,2.61
2023-03-08T06:45:09.948Z,2.69
2023-03-08T06:47:37.624Z,2.82
2023-03-08T06:50:05.194Z,2.91
2023-03-08T06:52:37.569Z,2.99
2023-03-08T06:55:05.665Z,2.49
2023-03-08T06:57:33.172Z,2.77
2023-03-08T07:00:00.680Z,2.96
2023-03-08T07:02:28.347Z,2.84
2023-03-08T07:04:55.825Z,2.75
2023-03-08T07:07:23.245Z,3.15
2023-03-08T07:09:50.759Z,3.29
2023-03-08T07:12:18.229Z,3.43
2023-03-08T07:14:45.697Z,3.57
2023-03-08T07:17:13.161Z,3.64
2023-03-08T07:19:40.741Z,3.40
2023-03-08T07:22:08.208Z,3.44
2023-03-08T07:24:35.611Z,3.53
2023-03-08T07:27:02.998Z,3.65
2023-03-08T07:29:30.601Z,3.41
2023-03-08T07:31:58.096Z,2.99
2023-03-08T07:34:25.556Z,2.93
2023-03-08T07:36:53.067Z,3.54
2023-03-08T07:39:20.733Z,2.96
2023-03-08T07:41:48.153Z,3.28
2023-03-08T07:44:15.630Z,3.71
2023-03-08T07:46:43.212Z,3.80
2023-03-08T07:49:11.697Z,3.56
2023-03-08T07:51:39.180Z,3.56
2023-03-08T07:54:07.703Z,3.53
2023-03-08T07:56:35.219Z,3.31
2023-03-08T07:59:02.624Z,2.78
2023-03-08T08:01:30.107Z,2.67
2023-03-08T08:03:57.593Z,3.19
2023-03-08T08:06:25.039Z,3.38
2023-03-08T08:08:52.501Z,3.27
2023-03-08T08:11:20.830Z,3.59
2023-03-08T08:13:48.439Z,3.77
2023-03-08T08:16:16.993Z,3.90
2023-03-08T08:18:44.725Z,3.56
2023-03-08T08:21:13.338Z,3.69
2023-03-08T08:23:41.642Z,4.17
2023-03-08T08:26:10.539Z,4.25
2023-03-08T08:28:39.405Z,4.45
2023-03-08T08:31:08.386Z,4.02
2023-03-08T08:33:36.354Z,4.12
2023-03-08T08:36:05.319Z,4.11
2023-03-08T08:38:32.822Z,3.74
2023-03-08T08:41:01.440Z,3.30
2023-03-08T08:43:29.399Z,3.46
2023-03-08T08:45:58.103Z,3.86
2023-03-08T08:48:25.889Z,3.96
2023-03-08T08:50:54.063Z,3.86
2023-03-08T08:53:21.995Z,3.87
2023-03-08T08:55:49.460Z,3.44
2023-03-08T08:58:17.042Z,3.89
2023-03-08T09:00:44.838Z,4.28
2023-03-08T09:03:12.349Z,4.12
2023-03-08T09:05:41.075Z,4.30
2023-03-08T09:08:09.052Z,3.95
2023-03-08T09:10:37.728Z,4.09
2023-03-08T09:13:05.825Z,4.29
2023-03-08T09:15:34.025Z,4.38
2023-03-08T09:18:01.603Z,4.23
2023-03-08T09:20:29.079Z,4.37
2023-03-08T09:22:56.597Z,4.38
2023-03-08T09:25:24.193Z,4.21
2023-03-08T09:27:51.978Z,4.36
2023-03-08T09:30:19.776Z,4.45
2023-03-08T09:32:47.334Z,4.55
2023-03-08T09:35:16.149Z,4.58
2023-03-08T09:37:43.645Z,4.63
2023-03-08T09:40:21.940Z,4.23
2023-03-08T09:42:49.352Z,4.42
2023-03-08T09:45:28.239Z,5.13
2023-03-08T09:48:00.185Z,3.15
2023-03-08T09:50:31.375Z,3.43
2023-03-08T09:53:02.410Z,3.87
2023-03-08T09:55:31.155Z,3.85
2023-03-08T09:58:14.756Z,2.08
2023-03-08T10:00:42.199Z,2.03
2023-03-08T10:03:36.085Z,1.99
2023-03-08T10:06:15.972Z,2.12
2023-03-08T10:08:49.811Z,1.90
2023-03-08T10:11:30.606Z,2.80
2023-03-08T10:13:59.457Z,2.87
2023-03-08T10:16:30.970Z,2.49
2023-03-08T10:19:01.294Z,2.57
2023-03-08T10:21:30.783Z,2.86
2023-03-08T10:24:13.073Z,2.69
2023-03-08T10:26:41.452Z,2.39
2023-03-08T10:29:10.630Z,2.52
2023-03-08T10:31:38.064Z,2.91
2023-03-08T10:34:13.519Z,2.80
2023-03-08T10:36:51.619Z,2.77
2023-03-08T10:39:19.514Z,2.81
2023-03-08T10:41:58.472Z,2.42
2023-03-08T10:44:49.354Z,2.91
2023-03-08T10:47:19.845Z,3.69
2023-03-08T10:49:47.703Z,3.70
2023-03-08T10:52:41.487Z,4.04
2023-03-08T10:55:19.563Z,2.83
2023-03-08T10:58:13.083Z,3.74
2023-03-08T11:00:42.664Z,3.71
2023-03-08T11:03:16.220Z,3.61
2023-03-08T11:05:57.421Z,4.00
2023-03-08T11:08:26.809Z,4.69
2023-03-08T11:11:20.731Z,4.60
2023-03-08T11:13:49.044Z,4.67
2023-03-08T11:16:35.346Z,4.61
2023-03-08T11:19:03.220Z,4.41
2023-03-08T11:21:33.479Z,4.08
2023-03-08T11:24:09.982Z,3.60
2023-03-08T11:26:57.722Z,3.59
2023-03-08T11:29:32.854Z,4.20
2023-03-08T11:32:00.311Z,4.14
2023-03-08T11:34:46.634Z,4.37
2023-03-08T11:37:14.092Z,4.89
2023-03-08T11:39:41.465Z,4.47
2023-03-08T11:42:18.558Z,4.43
2023-03-08T11:44:45.961Z,4.19
2023-03-08T11:47:29.187Z,4.77
2023-03-08T11:50:05.742Z,4.23
2023-03-08T11:52:38.445Z,4.44
2023-03-08T11:55:11.998Z,4.35
2023-03-08T11:57:42.117Z,4.77
2023-03-08T12:00:23.193Z,4.68
2023-03-08T12:02:51.160Z,4.76
2023-03-08T12:05:21.572Z,5.13
2023-03-08T12:07:55.569Z,4.99
2023-03-08T12:10:25.350Z,2.97
2023-03-08T12:13:01.076Z,2.89
2023-03-08T12:15:33.536Z,2.53
2023-03-08T12:18:08.817Z,3.17
2023-03-08T12:20:39.741Z,3.51
2023-03-08T12:23:16.293Z,3.77
2023-03-08T12:25:45.467Z,3.47
2023-03-08T12:28:35.650Z,4.64
2023-03-08T12:31:11.031Z,3.31
2023-03-08T12:33:45.960Z,4.55
2023-03-08T12:36:13.664Z,4.92
2023-03-08T12:38:46.690Z,4.70
2023-03-08T12:41:28.404Z,4.75
2023-03-08T12:44:01.749Z,5.15
2023-03-08T12:46:29.159Z,5.14
2023-03-08T12:48:57.383Z,4.71
2023-03-08T12:51:31.718Z,4.45
2023-03-08T12:54:04.057Z,4.68
2023-03-08T12:56:37.354Z,5.02
2023-03-08T12:59:24.725Z,5.02
2023-03-08T13:01:58.056Z,5.17
2023-03-08T13:04:42.253Z,4.46
2023-03-08T13:07:10.117Z,4.80
2023-03-08T13:09:44.755Z,4.84
2023-03-08T13:12:24.101Z,4.82
2023-03-08T13:15:00.694Z,5.15
2023-03-08T13:17:37.502Z,4.73
2023-03-08T13:20:12.648Z,4.92
2023-03-08T13:22:46.241Z,5.37
2023-03-08T13:25:16.455Z,5.38
2023-03-08T13:27:50.862Z,5.26
2023-03-08T13:30:24.338Z,5.19
2023-03-08T13:32:52.171Z,5.44
2023-03-08T13:35:20.141Z,6.02
2023-03-08T13:37:55.166Z,5.43
2023-03-08T13:40:23.221Z,5.80
2023-03-08T13:42:57.934Z,5.27
2023-03-08T13:45:25.905Z,5.65
2023-03-08T13:47:54.517Z,4.91
2023-03-08T13:50:26.205Z,4.97
2023-03-08T13:52:54.276Z,5.33
2023-03-08T13:55:36.650Z,5.36
2023-03-08T13:58:04.350Z,5.77
2023-03-08T14:00:33.948Z,5.66
2023-03-08T14:03:02.195Z,5.50
2023-03-08T14:05:31.698Z,5.15
2023-03-08T14:07:59.106Z,5.48
2023-03-08T14:10:32.745Z,5.40
2023-03-08T14:13:00.222Z,5.06
2023-03-08T14:15:27.750Z,4.32
2023-03-08T14:17:55.165Z,4.32
2023-03-08T14:20:24.077Z,4.55
2023-03-08T14:22:53.338Z,4.73
2023-03-08T14:25:31.899Z,4.69
2023-03-08T14:27:59.578Z,4.56
2023-03-08T14:30:28.261Z,4.54
2023-03-08T14:33:16.019Z,4.37
2023-03-08T14:35:46.249Z,4.07
2023-03-08T14:38:25.236Z,4.75
2023-03-08T14:40:53.079Z,4.13
2023-03-08T14:43:22.044Z,4.03
2023-03-08T14:45:55.665Z,3.67
2023-03-08T14:48:29.853Z,3.77
2023-03-08T14:51:04.567Z,4.34
2023-03-08T14:53:42.382Z,4.34
2023-03-08T14:56:12.833Z,3.97
2023-03-08T14:58:42.281Z,4.08
2023-03-08T15:01:09.719Z,4.28
2023-03-08T15:03:37.163Z,3.99
2023-03-08T15:06:16.870Z,3.74
2023-03-08T15:08:44.421Z,4.30
2023-03-08T15:11:11.951Z,4.19
2023-03-08T15:13:39.382Z,3.79
2023-03-08T15:16:13.249Z,3.95
2023-03-08T15:18:41.716Z,4.10
2023-03-08T15:21:11.903Z,4.07
2023-03-08T15:23:39.386Z,4.38
2023-03-08T15:26:07.532Z,4.15
2023-03-08T15:28:34.962Z,3.32
2023-03-08T15:31:02.419Z,3.57
2023-03-08T15:33:29.873Z,3.67
2023-03-08T15:35:59.151Z,4.05
2023-03-08T15:38:26.574Z,4.35
2023-03-08T15:40:54.009Z,4.13
2023-03-08T15:43:21.516Z,3.31
2023-03-08T15:45:48.983Z,2.70
2023-03-08T15:48:18.234Z,3.05
2023-03-08T15:50:45.864Z,3.15
2023-03-08T15:53:20.570Z,2.82
2023-03-08T15:55:56.925Z,3.85
2023-03-08T15:58:24.369Z,4.12
2023-03-08T16:00:52.165Z,4.02
2023-03-08T16:03:25.904Z,3.86
2023-03-08T16:05:53.512Z,4.06
2023-03-08T16:08:25.114Z,4.17
2023-03-08T16:10:52.983Z,3.82
2023-03-08T16:13:22.067Z,4.29
2023-03-08T16:15:49.904Z,4.32
2023-03-08T16:18:17.310Z,4.31
2023-03-08T16:20:46.228Z,4.22
2023-03-08T16:23:13.761Z,3.45
2023-03-08T16:25:43.164Z,3.83
2023-03-08T16:28:11.043Z,3.94
2023-03-08T16:30:39.204Z,4.05
2023-03-08T16:33:06.618Z,3.99
2023-03-08T16:35:34.110Z,3.34
2023-03-08T16:38:01.563Z,3.13
2023-03-08T16:40:31.171Z,2.99
2023-03-08T16:42:58.890Z,3.56
2023-03-08T16:45:26.334Z,3.56
2023-03-08T16:47:53.831Z,3.70
2023-03-08T16:50:21.254Z,3.98
2023-03-08T16:52:48.755Z,4.17
2023-03-08T16:55:16.220Z,3.98
2023-03-08T16:57:43.748Z,3.72
2023-03-08T17:00:12.781Z,4.18
2023-03-08T17:02:40.492Z,4.06
2023-03-08T17:05:10.720Z,3.81
2023-03-08T17:07:38.873Z,3.84
2023-03-08T17:10:06.715Z,4.14
2023-03-08T17:12:34.099Z,4.14
2023-03-08T17:15:04.627Z,3.29
2023-03-08T17:17:32.022Z,1.94
2023-03-08T17:20:00.645Z,2.97
2023-03-08T17:22:28.178Z,2.74
2023-03-08T17:24:55.690Z,3.28
2023-03-08T17:27:24.212Z,3.19
2023-03-08T17:29:51.599Z,3.20
2023-03-08T17:32:19.457Z,2.80
2023-03-08T17:34:46.882Z,2.91
2023-03-08T17:37:15.684Z,3.11
2023-03-08T17:39:43.150Z,2.94
2023-03-08T17:42:11.344Z,2.76
2023-03-08T17:44:38.750Z,2.90
2023-03-08T17:47:06.304Z,2.75
2023-03-08T17:49:34.197Z,2.60
2023-03-08T17:52:01.596Z,3.02
2023-03-08T17:54:29.054Z,2.93
2023-03-08T17:56:56.525Z,2.94
2023-03-08T17:59:23.976Z,3.33
2023-03-08T18:01:51.383Z,2.87
2023-03-08T18:04:19.220Z,3.05
2023-03-08T18:06:46.726Z,2.97
2023-03-08T18:09:16.762Z,3.11
2023-03-08T18:11:44.268Z,3.02
2023-03-08T18:14:15.185Z,2.34
2023-03-08T18:16:44.718Z,2.49
2023-03-08T18:19:12.230Z,2.45
2023-03-08T18:21:41.270Z,2.74
2023-03-08T18:24:11.209Z,2.85
2023-03-08T18:26:38.604Z,2.77
2023-03-08T18:29:06.092Z,3.03
2023-03-08T18:31:35.205Z,2.82
2023-03-08T18:34:03.092Z,2.92
2023-03-08T18:36:30.914Z,3.12
2023-03-08T18:38:58.379Z,3.22
2023-03-08T18:41:28.074Z,2.90
2023-03-08T18:43:56.117Z,3.24
2023-03-08T18:46:29.397Z,2.97
2023-03-08T18:49:05.976Z,3.08
2023-03-08T18:51:34.243Z,3.20
2023-03-08T18:54:01.669Z,3.31
2023-03-08T18:56:29.612Z,3.28
2023-03-08T18:58:58.685Z,3.37
2023-03-08T19:01:26.391Z,3.52
2023-03-08T19:03:54.121Z,3.41
2023-03-08T19:06:21.558Z,3.35
2023-03-08T19:08:49.052Z,3.51
2023-03-08T19:11:18.051Z,3.40
2023-03-08T19:13:45.548Z,3.18
2023-03-08T19:16:20.505Z,3.16
2023-03-08T19:18:48.484Z,3.15
2023-03-08T19:21:18.874Z,3.34
2023-03-08T19:23:46.430Z,3.52
2023-03-08T19:26:36.148Z,3.52
2023-03-08T19:29:05.071Z,3.45
2023-03-08T19:31:32.903Z,3.44
2023-03-08T19:34:01.214Z,3.46
2023-03-08T19:36:28.677Z,3.58
2023-03-08T19:38:56.820Z,3.31
2023-03-08T19:41:24.418Z,3.59
2023-03-08T19:43:51.852Z,3.52
2023-03-08T19:46:19.317Z,3.39
2023-03-08T19:48:47.236Z,3.42
2023-03-08T19:51:15.573Z,3.45
2023-03-08T19:53:43.660Z,3.42
2023-03-08T19:56:18.205Z,3.28
2023-03-08T19:58:46.601Z,3.42
2023-03-08T20:01:15.048Z,3.06
2023-03-08T20:03:43.050Z,2.78
2023-03-08T20:06:10.901Z,3.08
2023-03-08T20:08:38.435Z,3.02
2023-03-08T20:11:06.060Z,3.09
2023-03-08T20:13:33.573Z,3.12
2023-03-08T20:16:00.966Z,3.19
2023-03-08T20:18:29.135Z,3.03
2023-03-08T20:20:58.433Z,3.22
2023-03-08T20:23:26.752Z,2.82
2023-03-08T20:25:54.189Z,3.02
2023-03-08T20:28:21.704Z,3.10
2023-03-08T20:30:49.239Z,2.97
2023-03-08T20:33:18.110Z,3.16
2023-03-08T20:35:47.221Z,3.13
2023-03-08T20:38:14.726Z,3.30
2023-03-08T20:40:42.164Z,3.03
2023-03-08T20:43:11.000Z,3.45
2023-03-08T20:45:39.385Z,3.12
2023-03-08T20:48:06.957Z,3.11
2023-03-08T20:50:34.505Z,2.92
2023-03-08T20:53:01.941Z,3.03
2023-03-08T20:55:29.444Z,3.04
2023-03-08T20:57:56.871Z,2.99
2023-03-08T21:00:25.196Z,3.13
2023-03-08T21:02:52.994Z,3.35
2023-03-08T21:05:20.508Z,3.36
2023-03-08T21:07:47.916Z,3.36
2023-03-08T21:10:15.337Z,3.45
2023-03-08T21:12:42.797Z,3.36
2023-03-08T21:15:10.924Z,3.12
2023-03-08T21:17:39.952Z,3.23
2023-03-08T21:20:08.195Z,3.18
2023-03-08T21:22:35.768Z,3.26
2023-03-08T21:25:03.255Z,3.12
2023-03-08T21:27:30.727Z,3.36
2023-03-08T21:29:58.237Z,3.33
2023-03-08T21:32:27.853Z,3.41
2023-03-08T21:34:55.477Z,3.48
2023-03-08T21:37:23.297Z,3.52
2023-03-08T21:39:50.753Z,3.30
2023-03-08T21:42:18.205Z,3.57
2023-03-08T21:44:45.722Z,3.81
2023-03-08T21:47:13.142Z,3.42
2023-03-08T21:49:40.682Z,3.33
2023-03-08T21:52:08.062Z,3.47
2023-03-08T21:54:35.469Z,3.29
2023-03-08T21:57:02.933Z,3.59
2023-03-08T21:59:30.443Z,3.34
2023-03-08T22:01:58.878Z,3.72
2023-03-08T22:04:32.921Z,3.35
2023-03-08T22:07:00.723Z,3.51
2023-03-08T22:09:29.170Z,3.49
2023-03-08T22:11:58.818Z,3.79
2023-03-08T22:14:26.412Z,3.89
2023-03-08T22:16:56.378Z,3.70
2023-03-08T22:19:23.875Z,3.52
2023-03-08T22:21:51.256Z,3.69
2023-03-08T22:24:18.701Z,3.49
2023-03-08T22:26:46.142Z,3.45
2023-03-08T22:29:13.613Z,3.49
2023-03-08T22:31:41.092Z,3.46
2023-03-08T22:34:08.596Z,3.10
2023-03-08T22:36:36.102Z,3.19
2023-03-08T22:39:03.602Z,3.01
2023-03-08T22:41:31.327Z,3.01
2023-03-08T22:43:59.238Z,3.38
2023-03-08T22:46:27.261Z,3.30
2023-03-08T22:48:56.468Z,3.27
2023-03-08T22:51:24.348Z,3.29
2023-03-08T22:53:51.753Z,3.09
2023-03-08T22:56:21.386Z,3.46
2023-03-08T22:58:49.101Z,3.32
2023-03-08T23:01:17.662Z,3.29
2023-03-08T23:03:46.136Z,2.84
2023-03-08T23:06:13.565Z,3.03
2023-03-08T23:08:41.010Z,2.89
2023-03-08T23:11:08.480Z,2.83
2023-03-08T23:13:35.999Z,2.87
2023-03-08T23:16:03.440Z,2.93
2023-03-08T23:18:30.924Z,2.89
2023-03-08T23:21:02.369Z,2.67
2023-03-08T23:23:29.912Z,2.64
2023-03-08T23:25:57.382Z,2.66
2023-03-08T23:28:24.868Z,2.85
2023-03-08T23:30:52.302Z,2.75
2023-03-08T23:33:19.696Z,2.83
2023-03-08T23:35:50.700Z,2.95
2023-03-08T23:38:18.172Z,2.80
2023-03-08T23:40:45.645Z,2.74
2023-03-08T23:43:13.175Z,2.68
2023-03-08T23:45:41.207Z,2.68
2023-03-08T23:48:08.652Z,2.79
2023-03-08T23:50:36.183Z,2.63
2023-03-08T23:53:03.595Z,2.71
2023-03-08T23:55:31.019Z,2.90
2023-03-08T23:57:58.432Z,2.53
